Main page
METAR-TAF:

METAR-TAF

Airports :

Shannon Airport

Shannon, Ireland

latitude: 52-42N, longitude: 008-55W, elevation: 14 m

Current weather observation

The report was made 33 minutes ago, at 22:00 UTC
Wind 14 kt from the West
Temperature 12°C
Humidity 82%
Pressure 1017 hPa
Visibility 10 km or more
Few clouds at a height of 1200 ft
Few clouds at a height of 1800 ft, Cumulonimbus.

METAR: EINN 052200Z 28014KT 9999 FEW012 FEW018CB 12/09 Q1017 NOSIG

Time: 23:33 (22:33 UTC)

Forecast

The report was made 5 hours and 33 minutes ago, at 17:00 UTC
Forecast valid from 05 at 18 UTC to 06 at 18 UTC
Wind 20 kt from the West with gusts up to 32 kt
Visibility 10 km or more
Few clouds at a height of 2000 ft
Broken clouds at a height of 3000 ft
Becoming
from 05 at 20 UTC to 05 at 22 UTC
Wind 13 kt from the West/Northwest
Temporary
from 05 at 22 UTC to 06 at 03 UTC
Wind 16 kt from the Northwest with gusts up to 26 kt

TAF: EINN 051700Z 0518/0618 27020G32KT 9999 FEW020 BKN030 BECMG 0520/0522 30013KT TEMPO 0522/0603 31016G26KT

Weather observations and forecasts of more than 4000 airports (METAR and TAF reports).

The available stations are represented by yellow and red dots on the map.

Hover mouse over dot to see the name of the station.

Then click to see weather observations and forecasts.

To change the map : click on the green buttons with a black cross to zoom in, on the green button with a dash to zoom out, or on the green arrows for adjacent maps.


METAR-TAF: